createdAt,value
2018-06-19T00:00:40.810Z,102114.13
2018-06-19T00:03:13.981Z,102122.80
2018-06-19T00:05:43.969Z,102115.16
2018-06-19T00:08:17.197Z,102117.92
2018-06-19T00:10:50.076Z,102121.58
2018-06-19T00:13:21.563Z,102124.70
2018-06-19T00:15:53.145Z,102133.02
2018-06-19T00:18:28.972Z,102126.98
2018-06-19T00:21:06.943Z,102126.06
2018-06-19T00:23:40.047Z,102139.09
2018-06-19T00:26:13.035Z,102135.92
2018-06-19T00:28:45.883Z,102136.09
2018-06-19T00:31:18.608Z,102137.11
2018-06-19T00:33:52.519Z,102134.78
2018-06-19T00:36:25.565Z,102141.38
2018-06-19T00:38:57.700Z,102137.14
2018-06-19T00:41:28.971Z,102141.69
2018-06-19T00:44:03.500Z,102143.33
2018-06-19T00:46:37.836Z,102144.72
2018-06-19T00:49:07.836Z,102141.69
2018-06-19T00:51:42.320Z,102140.86
2018-06-19T00:54:12.576Z,102149.00
2018-06-19T00:57:03.062Z,102150.41
2018-06-19T00:59:36.101Z,102143.65
2018-06-19T01:02:09.142Z,102148.20
2018-06-19T01:04:39.075Z,102154.52
2018-06-19T01:07:11.407Z,102152.62
2018-06-19T01:09:45.924Z,102153.67
2018-06-19T01:12:17.934Z,102144.57
2018-06-19T01:14:52.165Z,102159.18
2018-06-19T01:17:23.744Z,102149.48
2018-06-19T01:19:55.396Z,102153.52
2018-06-19T01:22:29.942Z,102157.23
2018-06-19T01:25:02.031Z,102154.72
2018-06-19T01:27:33.572Z,102148.67
2018-06-19T01:30:06.750Z,102144.00
2018-06-19T01:32:39.884Z,102152.17
2018-06-19T01:35:13.337Z,102155.78
2018-06-19T01:37:44.910Z,102152.09
2018-06-19T01:40:20.092Z,102152.86
2018-06-19T01:42:49.780Z,102151.59
2018-06-19T01:45:24.280Z,102140.41
2018-06-19T01:47:57.996Z,102150.99
2018-06-19T01:50:29.657Z,102150.45
2018-06-19T01:53:02.765Z,102158.31
2018-06-19T01:55:34.309Z,102151.18
2018-06-19T01:58:07.255Z,102149.55
2018-06-19T02:00:40.603Z,102146.56
2018-06-19T02:03:13.628Z,102148.56
2018-06-19T02:05:46.711Z,102154.48
2018-06-19T02:08:21.326Z,102158.61
2018-06-19T02:10:54.493Z,102166.47
2018-06-19T02:13:27.550Z,102165.44
2018-06-19T02:15:59.128Z,102163.06
2018-06-19T02:18:33.157Z,102165.40
2018-06-19T02:21:05.898Z,102160.96
2018-06-19T02:23:38.834Z,102163.81
2018-06-19T02:26:10.385Z,102160.66
2018-06-19T02:28:40.595Z,102157.89
2018-06-19T02:31:10.775Z,102164.66
2018-06-19T02:33:43.895Z,102165.20
2018-06-19T02:36:15.260Z,102162.19
2018-06-19T02:38:47.674Z,102171.58
2018-06-19T02:41:19.915Z,102168.61
2018-06-19T02:43:49.975Z,102170.01
2018-06-19T02:46:22.931Z,102172.30
2018-06-19T02:48:55.023Z,102170.03
2018-06-19T02:51:29.762Z,102177.51
2018-06-19T02:54:02.725Z,102184.13
2018-06-19T02:56:37.199Z,102183.19
2018-06-19T02:59:07.171Z,102187.03
2018-06-19T03:01:41.832Z,102183.14
2018-06-19T03:04:14.721Z,102189.16
2018-06-19T03:06:48.975Z,102203.44
2018-06-19T03:09:20.645Z,102199.87
2018-06-19T03:11:51.109Z,102197.94
2018-06-19T03:14:24.354Z,102209.09
2018-06-19T03:16:55.964Z,102202.35
2018-06-19T03:19:30.516Z,102212.55
2018-06-19T03:22:02.254Z,102211.44
2018-06-19T03:24:35.446Z,102206.23
2018-06-19T03:27:10.251Z,102202.59
2018-06-19T03:29:42.200Z,102204.38
2018-06-19T03:32:15.238Z,102205.27
2018-06-19T03:34:48.272Z,102222.19
2018-06-19T03:37:21.664Z,102224.95
2018-06-19T03:39:56.139Z,102227.56
2018-06-19T03:42:28.092Z,102238.72
2018-06-19T03:44:59.481Z,102239.46
2018-06-19T03:47:33.975Z,102238.84
2018-06-19T03:50:07.014Z,102242.02
2018-06-19T03:52:37.037Z,102239.77
2018-06-19T03:55:10.642Z,102241.75
2018-06-19T03:57:43.925Z,102244.35
2018-06-19T04:00:15.585Z,102250.86
2018-06-19T04:02:48.788Z,102249.75
2018-06-19T04:05:21.969Z,102251.75
2018-06-19T04:07:54.894Z,102251.35
2018-06-19T04:10:28.368Z,102248.86
2018-06-19T04:13:02.840Z,102248.06
2018-06-19T04:15:34.324Z,102252.53
2018-06-19T04:18:07.812Z,102249.09
2018-06-19T04:20:42.241Z,102258.05
2018-06-19T04:23:15.179Z,102263.03
2018-06-19T04:25:48.240Z,102258.98
2018-06-19T04:28:19.764Z,102255.65
2018-06-19T04:30:51.319Z,102255.52
2018-06-19T04:33:23.352Z,102255.58
2018-06-19T04:35:56.618Z,102249.73
2018-06-19T04:38:31.316Z,102252.41
2018-06-19T04:41:04.317Z,102255.86
2018-06-19T04:43:38.910Z,102256.96
2018-06-19T04:46:10.783Z,102255.25
2018-06-19T04:48:43.896Z,102247.20
2018-06-19T04:51:15.554Z,102251.97
2018-06-19T04:53:47.364Z,102263.50
2018-06-19T04:56:20.588Z,102268.02
2018-06-19T04:58:52.830Z,102262.89
2018-06-19T05:01:27.551Z,102265.06
2018-06-19T05:04:00.832Z,102265.31
2018-06-19T05:06:32.512Z,102267.69
2018-06-19T05:09:04.352Z,102261.31
2018-06-19T05:11:37.410Z,102267.33
2018-06-19T05:14:09.205Z,102267.34
2018-06-19T05:16:42.592Z,102268.77
2018-06-19T05:19:15.654Z,102269.25
2018-06-19T05:21:48.686Z,102276.70
2018-06-19T05:24:20.244Z,102280.80
2018-06-19T05:26:51.814Z,102273.72
2018-06-19T05:29:24.842Z,102290.08
2018-06-19T05:31:58.100Z,102290.08
2018-06-19T05:34:31.197Z,102293.18
2018-06-19T05:37:05.932Z,102287.13
2018-06-19T05:39:38.334Z,102285.97
2018-06-19T05:42:11.346Z,102287.89
2018-06-19T05:44:46.398Z,102298.84
2018-06-19T05:47:18.016Z,102292.91
2018-06-19T05:49:51.145Z,102294.69
2018-06-19T05:52:24.467Z,102296.09
2018-06-19T05:54:57.518Z,102296.81
2018-06-19T05:57:30.055Z,102301.18
2018-06-19T06:00:01.591Z,102297.97
2018-06-19T06:02:32.912Z,102293.52
2018-06-19T06:05:05.914Z,102293.95
2018-06-19T06:07:35.433Z,102304.48
2018-06-19T06:10:07.217Z,102306.75
2018-06-19T06:12:40.626Z,102306.17
2018-06-19T06:15:13.849Z,102303.25
2018-06-19T06:17:43.876Z,102307.58
2018-06-19T06:20:18.583Z,102310.55
2018-06-19T06:22:53.338Z,102312.16
2018-06-19T06:25:25.258Z,102313.36
2018-06-19T06:27:57.449Z,102320.33
2018-06-19T06:30:28.259Z,102327.44
2018-06-19T06:32:58.982Z,102329.26
2018-06-19T06:35:29.121Z,102329.83
2018-06-19T06:38:00.787Z,102330.89
2018-06-19T06:40:33.869Z,102330.34
2018-06-19T06:43:06.947Z,102335.19
2018-06-19T06:45:40.289Z,102340.47
2018-06-19T06:48:11.755Z,102341.19
2018-06-19T06:50:44.875Z,102342.48
2018-06-19T06:53:15.117Z,102344.14
2018-06-19T06:55:45.437Z,102350.07
2018-06-19T06:58:16.877Z,102352.55
2018-06-19T07:00:46.921Z,102353.39
2018-06-19T07:03:18.454Z,102359.07
2018-06-19T07:05:53.539Z,102349.00
2018-06-19T07:08:28.172Z,102360.41
2018-06-19T07:10:58.224Z,102348.78
2018-06-19T07:13:31.536Z,102354.96
2018-06-19T07:16:05.884Z,102354.80
2018-06-19T07:18:40.201Z,102364.34
2018-06-19T07:21:10.201Z,102359.73
2018-06-19T07:23:43.068Z,102366.59
2018-06-19T07:26:17.643Z,102365.44
2018-06-19T07:28:47.608Z,102369.59
2018-06-19T07:31:18.098Z,102373.26
2018-06-19T07:33:52.470Z,102374.06
2018-06-19T07:36:25.711Z,102380.60
2018-06-19T07:38:59.442Z,102385.92
2018-06-19T07:41:32.316Z,102391.09
2018-06-19T07:44:05.885Z,102385.84
2018-06-19T07:46:40.302Z,102392.63
2018-06-19T07:49:14.879Z,102397.67
2018-06-19T07:51:48.056Z,102397.62
2018-06-19T07:54:21.945Z,102400.02
2018-06-19T07:56:52.368Z,102401.78
2018-06-19T07:59:22.924Z,102408.93
2018-06-19T08:01:55.503Z,102409.97
2018-06-19T08:04:27.080Z,102408.67
2018-06-19T08:07:01.612Z,102407.73
2018-06-19T08:09:33.235Z,102412.57
2018-06-19T08:12:05.401Z,102407.30
2018-06-19T08:14:38.583Z,102406.16
2018-06-19T08:17:11.714Z,102405.64
2018-06-19T08:19:41.708Z,102402.79
2018-06-19T08:22:16.107Z,102410.95
2018-06-19T08:24:46.238Z,102405.47
2018-06-19T08:27:20.783Z,102414.59
2018-06-19T08:29:54.635Z,102415.20
2018-06-19T08:32:27.687Z,102415.12
2018-06-19T08:35:01.157Z,102416.16
2018-06-19T08:37:35.593Z,102417.42
2018-06-19T08:40:07.025Z,102418.05
2018-06-19T08:42:41.800Z,102416.53
2018-06-19T08:45:14.610Z,102425.28
2018-06-19T08:47:46.059Z,102423.88
2018-06-19T08:50:19.434Z,102422.21
2018-06-19T08:52:53.011Z,102421.92
2018-06-19T08:55:24.465Z,102416.16
2018-06-19T08:57:56.255Z,102423.75
2018-06-19T09:00:29.420Z,102427.90
2018-06-19T09:03:04.038Z,102411.19
2018-06-19T09:05:35.495Z,102423.77
2018-06-19T09:08:11.304Z,102415.48
2018-06-19T09:10:44.384Z,102417.55
2018-06-19T09:13:16.179Z,102426.32
2018-06-19T09:15:47.635Z,102422.06
2018-06-19T09:18:19.173Z,102429.77
2018-06-19T09:20:51.382Z,102433.09
2018-06-19T09:23:25.635Z,102434.36
2018-06-19T09:25:57.135Z,102428.16
2018-06-19T09:28:30.070Z,102429.98
2018-06-19T09:31:05.020Z,102430.55
2018-06-19T09:33:38.029Z,102427.13
2018-06-19T09:36:13.432Z,102426.71
2018-06-19T09:38:46.473Z,102427.04
2018-06-19T09:41:19.606Z,102428.05
2018-06-19T09:43:53.968Z,102426.39
2018-06-19T09:46:23.960Z,102426.89
2018-06-19T09:48:57.091Z,102428.81
2018-06-19T09:51:28.533Z,102429.98
2018-06-19T09:54:03.069Z,102430.14
2018-06-19T09:56:36.004Z,102430.52
2018-06-19T09:59:10.629Z,102430.91
2018-06-19T10:01:45.321Z,102435.70
2018-06-19T10:04:19.761Z,102437.48
2018-06-19T10:06:51.238Z,102436.47
2018-06-19T10:09:24.485Z,102432.91
2018-06-19T10:11:57.549Z,102438.38
2018-06-19T10:14:27.641Z,102432.82
2018-06-19T10:16:59.615Z,102442.91
2018-06-19T10:19:31.142Z,102440.89
2018-06-19T10:22:02.748Z,102447.03
2018-06-19T10:24:34.541Z,102445.16
2018-06-19T10:27:05.988Z,102448.86
2018-06-19T10:29:39.204Z,102452.50
2018-06-19T10:32:12.383Z,102453.98
2018-06-19T10:34:43.839Z,102454.05
2018-06-19T10:37:18.158Z,102460.75
2018-06-19T10:39:50.134Z,102460.45
2018-06-19T10:42:21.608Z,102463.13
2018-06-19T10:44:54.627Z,102463.49
2018-06-19T10:47:27.807Z,102462.91
2018-06-19T10:50:02.752Z,102470.06
2018-06-19T10:52:34.761Z,102470.64
2018-06-19T10:55:06.272Z,102465.75
2018-06-19T10:57:39.497Z,102466.28
2018-06-19T11:00:10.972Z,102468.38
2018-06-19T11:02:43.884Z,102476.92
2018-06-19T11:05:16.938Z,102480.01
2018-06-19T11:07:48.473Z,102485.02
2018-06-19T11:10:18.512Z,102486.45
2018-06-19T11:12:52.667Z,102484.34
2018-06-19T11:15:25.526Z,102488.02
2018-06-19T11:18:00.510Z,102488.52
2018-06-19T11:20:31.960Z,102489.23
2018-06-19T11:23:05.955Z,102486.44
2018-06-19T11:25:38.968Z,102497.22
2018-06-19T11:28:13.616Z,102496.88
2018-06-19T11:30:45.278Z,102493.85
2018-06-19T11:33:18.271Z,102497.49
2018-06-19T11:35:50.164Z,102497.63
2018-06-19T11:38:21.780Z,102490.20
2018-06-19T11:40:52.549Z,102490.16
2018-06-19T11:43:24.396Z,102492.97
2018-06-19T11:45:55.803Z,102497.32
2018-06-19T11:48:26.333Z,102494.22
2018-06-19T11:50:59.588Z,102498.44
2018-06-19T11:53:30.996Z,102495.64
2018-06-19T11:56:02.661Z,102501.11
2018-06-19T11:58:34.316Z,102501.00
2018-06-19T12:01:07.110Z,102496.64
2018-06-19T12:03:38.772Z,102496.65
2018-06-19T12:06:14.339Z,102495.91
2018-06-19T12:08:49.307Z,102500.23
2018-06-19T12:11:19.319Z,102500.87
2018-06-19T12:13:52.505Z,102499.45
2018-06-19T12:16:26.899Z,102502.89
2018-06-19T12:18:56.862Z,102510.58
2018-06-19T12:21:31.213Z,102510.07
2018-06-19T12:24:02.642Z,102507.50
2018-06-19T12:26:34.165Z,102516.52
2018-06-19T12:29:05.623Z,102513.82
2018-06-19T12:31:37.111Z,102521.52
2018-06-19T12:34:08.528Z,102522.73
2018-06-19T12:36:44.448Z,102524.67
2018-06-19T12:39:17.303Z,102521.47
2018-06-19T12:41:50.620Z,102520.00
2018-06-19T12:44:22.224Z,102522.92
2018-06-19T12:46:53.720Z,102521.48
2018-06-19T12:50:18.775Z,102524.09
2018-06-19T12:53:26.201Z,102523.07
2018-06-19T12:56:21.540Z,102529.35
2018-06-19T12:58:56.221Z,102526.20
2018-06-19T13:01:28.184Z,102530.20
2018-06-19T13:04:35.031Z,102532.77
2018-06-19T13:07:08.351Z,102523.94
2018-06-19T13:09:41.398Z,102531.14
2018-06-19T13:12:47.813Z,102533.35
2018-06-19T13:15:19.789Z,102528.53
2018-06-19T13:18:27.658Z,102533.92
2018-06-19T13:21:00.597Z,102524.62
2018-06-19T13:23:32.266Z,102523.41
2018-06-19T13:26:05.799Z,102528.09
2018-06-19T13:29:27.504Z,102525.28
2018-06-19T13:31:57.356Z,102519.00
2018-06-19T13:34:31.794Z,102521.79
2018-06-19T13:37:06.348Z,102524.86
2018-06-19T13:39:40.639Z,102522.78
2018-06-19T13:42:48.109Z,102517.34
2018-06-19T13:45:21.022Z,102524.19
2018-06-19T13:47:53.391Z,102522.94
2018-06-19T13:50:25.127Z,102525.84
2018-06-19T13:52:56.761Z,102526.20
2018-06-19T13:56:07.476Z,102528.20
2018-06-19T13:58:41.205Z,102521.72
2018-06-19T14:01:14.195Z,102523.53
2018-06-19T14:03:47.201Z,102520.73
2018-06-19T14:06:22.301Z,102522.23
2018-06-19T14:09:08.021Z,102524.45
2018-06-19T14:12:31.642Z,102523.86
2018-06-19T14:15:06.448Z,102521.03
2018-06-19T14:17:37.996Z,102518.47
2018-06-19T14:20:11.159Z,102520.02
2018-06-19T14:22:44.149Z,102521.20
2018-06-19T14:25:16.702Z,102520.58
2018-06-19T14:27:49.753Z,102526.30
2018-06-19T14:30:22.844Z,102514.20
2018-06-19T14:32:55.353Z,102519.05
2018-06-19T14:35:28.300Z,102513.75
2018-06-19T14:38:02.753Z,102508.33
2018-06-19T14:40:32.727Z,102513.23
2018-06-19T14:43:04.488Z,102509.91
2018-06-19T14:45:38.943Z,102511.84
2018-06-19T14:48:10.343Z,102515.91
2018-06-19T14:50:41.737Z,102506.33
2018-06-19T14:53:14.950Z,102513.13
2018-06-19T14:55:46.442Z,102518.61
2018-06-19T14:58:19.537Z,102516.50
2018-06-19T15:00:52.522Z,102522.42
2018-06-19T15:03:24.779Z,102525.41
2018-06-19T15:05:59.155Z,102523.78
2018-06-19T15:08:31.608Z,102522.02
2018-06-19T15:11:05.944Z,102517.20
2018-06-19T15:13:38.289Z,102518.34
2018-06-19T15:16:09.744Z,102517.70
2018-06-19T15:18:41.496Z,102521.65
2018-06-19T15:21:13.935Z,102515.92
2018-06-19T15:23:47.864Z,102513.75
2018-06-19T15:26:21.138Z,102519.25
2018-06-19T15:28:53.117Z,102513.28
2018-06-19T15:31:26.135Z,102516.61
2018-06-19T15:33:59.723Z,102516.23
2018-06-19T15:36:31.254Z,102515.80
2018-06-19T15:39:04.535Z,102512.36
2018-06-19T15:41:38.203Z,102514.86
2018-06-19T15:44:12.784Z,102514.31
2018-06-19T15:46:47.348Z,102507.83
2018-06-19T15:49:20.468Z,102503.52
2018-06-19T15:51:53.511Z,102506.02
2018-06-19T15:54:26.418Z,102505.72
2018-06-19T15:56:57.935Z,102508.39
2018-06-19T15:59:29.917Z,102501.51
2018-06-19T16:02:04.594Z,102506.45
2018-06-19T16:04:39.143Z,102504.41
2018-06-19T16:07:12.289Z,102508.40
2018-06-19T16:09:42.336Z,102506.88
2018-06-19T16:12:16.274Z,102504.37
2018-06-19T16:14:49.140Z,102509.40
2018-06-19T16:17:23.609Z,102510.25
2018-06-19T16:19:56.573Z,102506.91
2018-06-19T16:22:29.787Z,102509.14
2018-06-19T16:25:01.263Z,102504.00
2018-06-19T16:27:32.761Z,102506.60
2018-06-19T16:30:04.689Z,102505.77
2018-06-19T16:32:37.776Z,102505.84
2018-06-19T16:35:10.867Z,102506.00
2018-06-19T16:37:42.860Z,102500.39
2018-06-19T16:40:15.912Z,102503.36
2018-06-19T16:42:49.420Z,102493.78
2018-06-19T16:45:23.628Z,102500.56
2018-06-19T16:47:53.214Z,102499.42
2018-06-19T16:50:24.567Z,102501.40
2018-06-19T16:52:57.695Z,102495.59
2018-06-19T16:55:30.698Z,102490.87
2018-06-19T16:58:02.244Z,102493.49
2018-06-19T17:00:36.669Z,102498.41
2018-06-19T17:03:11.129Z,102499.68
2018-06-19T17:05:44.387Z,102494.70
2018-06-19T17:08:15.766Z,102495.88
2018-06-19T17:10:49.005Z,102492.27
2018-06-19T17:13:21.816Z,102490.92
2018-06-19T17:15:54.719Z,102487.58
2018-06-19T17:18:27.746Z,102487.54
2018-06-19T17:20:59.961Z,102490.47
2018-06-19T17:23:33.142Z,102487.91
2018-06-19T17:26:04.267Z,102482.89
2018-06-19T17:28:35.812Z,102481.49
2018-06-19T17:31:07.175Z,102484.56
2018-06-19T17:33:40.155Z,102480.73
2018-06-19T17:36:11.696Z,102477.14
2018-06-19T17:38:45.960Z,102478.09
2018-06-19T17:41:18.557Z,102479.23
2018-06-19T17:43:51.702Z,102473.92
2018-06-19T17:46:25.266Z,102469.88
2018-06-19T17:48:58.466Z,102469.53
2018-06-19T17:51:32.403Z,102471.39
2018-06-19T17:54:05.379Z,102471.91
2018-06-19T17:56:38.485Z,102470.58
2018-06-19T17:59:09.901Z,102474.33
2018-06-19T18:01:41.370Z,102470.90
2018-06-19T18:04:12.796Z,102469.44
2018-06-19T18:06:47.517Z,102471.55
2018-06-19T18:09:23.773Z,102475.95
2018-06-19T18:11:54.327Z,102472.41
2018-06-19T18:14:27.803Z,102479.12
2018-06-19T18:16:58.463Z,102473.69
2018-06-19T18:19:29.865Z,102472.66
2018-06-19T18:22:04.540Z,102470.20
2018-06-19T18:24:39.097Z,102468.22
2018-06-19T18:27:12.158Z,102475.95
2018-06-19T18:29:44.977Z,102474.58
2018-06-19T18:32:18.423Z,102471.80
2018-06-19T18:34:51.316Z,102470.89
2018-06-19T18:37:26.039Z,102470.13
2018-06-19T18:39:57.432Z,102461.75
2018-06-19T18:42:31.939Z,102465.97
2018-06-19T18:45:03.160Z,102462.94
2018-06-19T18:47:34.599Z,102458.73
2018-06-19T18:50:06.020Z,102465.84
2018-06-19T18:52:39.143Z,102458.97
2018-06-19T18:55:11.982Z,102466.19
2018-06-19T18:57:45.092Z,102467.86
2018-06-19T19:00:16.566Z,102471.46
2018-06-19T19:02:48.028Z,102463.17
2018-06-19T19:05:22.832Z,102468.37
2018-06-19T19:07:54.296Z,102464.73
2018-06-19T19:10:43.670Z,102470.02
2018-06-19T19:13:18.171Z,102464.18
2018-06-19T19:16:05.627Z,102469.38
2018-06-19T19:18:54.807Z,102470.52
2018-06-19T19:21:25.586Z,102474.48
2018-06-19T19:23:57.078Z,102473.28
2018-06-19T19:26:44.804Z,102472.56
2018-06-19T19:29:33.877Z,102468.77
2018-06-19T19:32:05.729Z,102470.13
2018-06-19T19:34:38.621Z,102472.30
2018-06-19T19:37:26.139Z,102471.11
2018-06-19T19:39:59.201Z,102474.03
2018-06-19T19:42:32.442Z,102476.72
2018-06-19T19:45:07.023Z,102478.03
2018-06-19T19:47:56.413Z,102473.30
2018-06-19T19:50:29.375Z,102486.12
2018-06-19T19:53:02.505Z,102484.95
2018-06-19T19:55:35.349Z,102482.67
2018-06-19T19:58:24.543Z,102484.13
2018-06-19T20:00:56.297Z,102487.70
2018-06-19T20:03:30.753Z,102493.59
2018-06-19T20:06:03.870Z,102496.25
2018-06-19T20:08:35.237Z,102493.44
2018-06-19T20:11:09.604Z,102494.27
2018-06-19T20:13:40.999Z,102494.70
2018-06-19T20:16:15.467Z,102497.67
2018-06-19T20:18:49.828Z,102496.75
2018-06-19T20:21:21.704Z,102504.15
2018-06-19T20:23:54.558Z,102502.13
2018-06-19T20:26:29.363Z,102503.89
2018-06-19T20:29:03.883Z,102504.09
2018-06-19T20:31:38.249Z,102502.75
2018-06-19T20:34:08.399Z,102505.41
2018-06-19T20:36:42.841Z,102508.58
2018-06-19T20:39:17.203Z,102510.36
2018-06-19T20:41:47.697Z,102511.27
2018-06-19T20:44:19.246Z,102506.53
2018-06-19T20:46:53.716Z,102506.70
2018-06-19T20:49:28.098Z,102505.39
2018-06-19T20:52:00.035Z,102507.05
2018-06-19T20:54:34.898Z,102506.79
2018-06-19T20:57:06.296Z,102502.94
2018-06-19T20:59:37.727Z,102502.08
2018-06-19T21:02:09.173Z,102508.07
2018-06-19T21:04:44.232Z,102507.79
2018-06-19T21:07:15.747Z,102506.30
2018-06-19T21:09:48.678Z,102507.07
2018-06-19T21:12:20.457Z,102500.73
2018-06-19T21:14:54.943Z,102506.06
2018-06-19T21:17:25.102Z,102501.78
2018-06-19T21:19:58.124Z,102497.81
2018-06-19T21:22:32.860Z,102501.36
2018-06-19T21:25:04.729Z,102503.36
2018-06-19T21:27:39.670Z,102499.84
2018-06-19T21:30:14.297Z,102504.50
2018-06-19T21:32:46.355Z,102499.68
2018-06-19T21:35:19.474Z,102499.45
2018-06-19T21:37:52.282Z,102493.88
2018-06-19T21:40:22.301Z,102493.02
2018-06-19T21:42:56.874Z,102495.45
2018-06-19T21:45:31.329Z,102489.05
2018-06-19T21:48:02.974Z,102495.67
2018-06-19T21:50:36.467Z,102495.42
2018-06-19T21:53:09.368Z,102490.65
2018-06-19T21:55:42.386Z,102490.02
2018-06-19T21:58:15.282Z,102489.45
2018-06-19T22:00:48.159Z,102492.45
2018-06-19T22:03:21.654Z,102494.39
2018-06-19T22:05:56.422Z,102493.56
2018-06-19T22:08:46.827Z,102485.25
2018-06-19T22:11:21.166Z,102487.94
2018-06-19T22:13:54.654Z,102484.06
2018-06-19T22:16:28.142Z,102479.55
2018-06-19T22:18:59.724Z,102473.15
2018-06-19T22:21:31.333Z,102476.71
2018-06-19T22:24:05.913Z,102476.17
2018-06-19T22:26:37.974Z,102465.38
2018-06-19T22:29:11.059Z,102464.41
2018-06-19T22:31:45.437Z,102470.59
2018-06-19T22:34:19.921Z,102464.40
2018-06-19T22:36:53.097Z,102464.70
2018-06-19T22:39:27.728Z,102464.22
2018-06-19T22:42:00.633Z,102459.88
2018-06-19T22:44:33.541Z,102460.86
2018-06-19T22:47:03.466Z,102466.30
2018-06-19T22:49:36.692Z,102465.38
2018-06-19T22:52:09.546Z,102462.80
2018-06-19T22:54:42.655Z,102458.20
2018-06-19T22:57:15.621Z,102448.27
2018-06-19T22:59:49.075Z,102447.22
2018-06-19T23:02:20.824Z,102448.16
2018-06-19T23:04:52.559Z,102450.84
2018-06-19T23:07:24.217Z,102445.69
2018-06-19T23:09:56.356Z,102446.57
2018-06-19T23:12:29.343Z,102446.58
2018-06-19T23:15:02.310Z,102447.91
2018-06-19T23:17:36.905Z,102443.52
2018-06-19T23:20:08.515Z,102439.99
2018-06-19T23:22:43.010Z,102444.81
2018-06-19T23:25:16.471Z,102442.41
2018-06-19T23:27:49.362Z,102436.55
2018-06-19T23:30:22.449Z,102436.09
2018-06-19T23:32:53.876Z,102434.41
2018-06-19T23:35:23.872Z,102428.50
2018-06-19T23:37:58.531Z,102432.31
2018-06-19T23:40:29.911Z,102433.31
2018-06-19T23:43:01.347Z,102436.66
2018-06-19T23:45:32.793Z,102437.94
2018-06-19T23:48:05.916Z,102434.04
2018-06-19T23:50:37.774Z,102432.37
2018-06-19T23:53:09.250Z,102429.89
2018-06-19T23:55:43.694Z,102434.44
2018-06-19T23:58:18.013Z,102430.50
